createdAt,value
2023-05-24T00:00:13.337Z,84.60
2023-05-24T00:02:44.453Z,85.00
2023-05-24T00:05:11.698Z,85.60
2023-05-24T00:07:38.754Z,85.60
2023-05-24T00:10:06.956Z,85.60
2023-05-24T00:12:33.972Z,85.90
2023-05-24T00:15:01.131Z,86.20
2023-05-24T00:17:30.432Z,86.30
2023-05-24T00:19:57.618Z,86.60
2023-05-24T00:22:25.268Z,86.50
2023-05-24T00:24:52.333Z,86.40
2023-05-24T00:27:19.330Z,86.80
2023-05-24T00:29:46.612Z,87.10
2023-05-24T00:32:13.713Z,87.40
2023-05-24T00:34:40.907Z,88.30
2023-05-24T00:37:08.233Z,87.30
2023-05-24T00:39:35.290Z,87.50
2023-05-24T00:42:03.060Z,87.90
2023-05-24T00:44:30.485Z,88.30
2023-05-24T00:46:57.751Z,88.30
2023-05-24T00:49:25.099Z,88.40
2023-05-24T00:51:53.071Z,88.60
2023-05-24T00:54:20.837Z,88.70
2023-05-24T00:56:48.678Z,88.90
2023-05-24T00:59:16.260Z,89.10
2023-05-24T01:01:46.955Z,89.30
2023-05-24T01:04:14.658Z,89.30
2023-05-24T01:07:13.515Z,89.00
2023-05-24T01:09:49.803Z,88.90
2023-05-24T01:12:44.257Z,88.90
2023-05-24T01:15:20.854Z,88.90
2023-05-24T01:18:01.693Z,88.70
2023-05-24T01:20:32.470Z,88.70
2023-05-24T01:23:11.057Z,88.90
2023-05-24T01:26:03.441Z,89.10
2023-05-24T01:28:33.262Z,89.40
2023-05-24T01:31:01.881Z,89.60
2023-05-24T01:33:29.151Z,89.80
2023-05-24T01:35:57.091Z,89.80
2023-05-24T01:38:24.050Z,89.90
2023-05-24T01:40:58.614Z,90.00
2023-05-24T01:44:13.212Z,90.00
2023-05-24T01:46:40.411Z,90.10
2023-05-24T01:49:26.202Z,90.00
2023-05-24T01:52:05.207Z,90.10
2023-05-24T01:54:37.775Z,90.10
2023-05-24T01:57:08.984Z,89.90
2023-05-24T01:59:38.240Z,89.80
2023-05-24T02:02:05.833Z,90.00
2023-05-24T02:04:32.949Z,90.30
2023-05-24T02:07:00.548Z,90.10
2023-05-24T02:09:27.572Z,90.00
2023-05-24T02:11:54.535Z,90.00
2023-05-24T02:14:21.588Z,90.20
2023-05-24T02:16:50.835Z,90.30
2023-05-24T02:19:19.364Z,90.30
2023-05-24T02:21:46.355Z,90.40
2023-05-24T02:24:13.457Z,90.40
2023-05-24T02:26:40.934Z,90.30
2023-05-24T02:29:08.024Z,90.20
2023-05-24T02:31:34.955Z,90.20
2023-05-24T02:34:02.413Z,90.30
2023-05-24T02:36:29.402Z,90.40
2023-05-24T02:38:56.816Z,90.40
2023-05-24T02:41:23.928Z,90.40
2023-05-24T02:43:51.011Z,90.40
2023-05-24T02:46:17.935Z,90.40
2023-05-24T02:48:44.999Z,90.40
2023-05-24T02:51:12.118Z,90.30
2023-05-24T02:53:39.082Z,90.20
2023-05-24T02:56:07.535Z,90.20
2023-05-24T02:58:41.151Z,90.30
2023-05-24T03:01:08.781Z,90.50
2023-05-24T03:03:35.947Z,90.60
2023-05-24T03:06:07.107Z,90.60
2023-05-24T03:08:34.832Z,90.60
2023-05-24T03:11:01.885Z,90.60
2023-05-24T03:13:28.987Z,90.70
2023-05-24T03:15:56.648Z,90.70
2023-05-24T03:18:23.931Z,90.70
2023-05-24T03:20:51.960Z,90.70
2023-05-24T03:23:18.986Z,90.80
2023-05-24T03:25:45.986Z,90.80
2023-05-24T03:28:15.166Z,90.80
2023-05-24T03:30:44.067Z,90.70
2023-05-24T03:33:11.373Z,90.70
2023-05-24T03:35:38.373Z,90.70
2023-05-24T03:38:05.444Z,90.70
2023-05-24T03:40:34.617Z,90.50
2023-05-24T03:43:13.381Z,90.40
2023-05-24T03:45:48.285Z,90.50
2023-05-24T03:48:15.626Z,90.50
2023-05-24T03:50:43.004Z,90.40
2023-05-24T03:53:11.479Z,90.50
2023-05-24T03:55:38.935Z,90.60
2023-05-24T03:58:06.062Z,90.60
2023-05-24T04:00:33.029Z,90.50
2023-05-24T04:03:01.790Z,90.60
2023-05-24T04:05:30.086Z,90.60
2023-05-24T04:07:57.378Z,90.70
2023-05-24T04:10:24.321Z,90.70
2023-05-24T04:12:51.634Z,90.70
2023-05-24T04:15:18.639Z,90.80
2023-05-24T04:17:46.991Z,90.70
2023-05-24T04:20:15.869Z,90.70
2023-05-24T04:22:42.959Z,90.70
2023-05-24T04:25:10.299Z,90.70
2023-05-24T04:27:37.503Z,90.80
2023-05-24T04:30:05.630Z,90.80
2023-05-24T04:32:32.912Z,90.80
2023-05-24T04:35:02.781Z,90.90
2023-05-24T04:37:31.769Z,90.90
2023-05-24T04:39:58.791Z,90.90
2023-05-24T04:42:27.325Z,90.90
2023-05-24T04:44:54.233Z,91.00
2023-05-24T04:47:21.234Z,91.00
2023-05-24T04:49:48.218Z,91.00
2023-05-24T04:52:15.193Z,91.00
2023-05-24T04:54:42.125Z,91.00
2023-05-24T04:57:09.157Z,91.00
2023-05-24T04:59:36.313Z,91.00
2023-05-24T05:02:03.504Z,91.00
2023-05-24T05:04:30.630Z,90.90
2023-05-24T05:06:57.877Z,90.90
2023-05-24T05:09:24.921Z,90.80
2023-05-24T05:11:51.964Z,90.80
2023-05-24T05:14:18.855Z,90.70
2023-05-24T05:19:13.232Z,90.40
2023-05-24T05:21:40.319Z,90.40
2023-05-24T05:24:07.357Z,90.30
2023-05-24T05:26:35.584Z,90.20
2023-05-24T05:29:02.599Z,90.10
2023-05-24T05:31:30.071Z,90.00
2023-05-24T05:33:57.103Z,89.80
2023-05-24T05:36:24.041Z,89.50
2023-05-24T05:38:51.099Z,89.20
2023-05-24T05:41:18.157Z,89.20
2023-05-24T05:43:45.065Z,89.00
2023-05-24T05:46:13.473Z,88.80
2023-05-24T05:48:40.540Z,88.70
2023-05-24T05:51:07.549Z,88.40
2023-05-24T05:53:35.039Z,87.90
2023-05-24T05:56:02.091Z,87.40
2023-05-24T05:58:29.002Z,86.90
2023-05-24T06:00:55.992Z,86.40
2023-05-24T06:03:23.086Z,86.10
2023-05-24T06:05:50.219Z,85.50
2023-05-24T06:08:17.187Z,84.20
2023-05-24T06:10:44.523Z,83.90
2023-05-24T06:13:11.576Z,83.80
2023-05-24T06:15:38.605Z,83.60
2023-05-24T06:18:05.944Z,84.20
2023-05-24T06:20:33.323Z,84.20
2023-05-24T06:23:00.328Z,83.40
2023-05-24T06:25:30.797Z,82.30
2023-05-24T06:27:57.846Z,81.50
2023-05-24T06:30:25.929Z,81.20
2023-05-24T06:32:53.095Z,81.80
2023-05-24T06:35:20.263Z,82.30
2023-05-24T06:37:47.344Z,81.80
2023-05-24T06:40:14.805Z,81.90
2023-05-24T06:42:41.863Z,81.30
2023-05-24T06:45:09.409Z,80.40
2023-05-24T06:47:37.229Z,79.20
2023-05-24T06:50:05.059Z,79.20
2023-05-24T06:52:32.066Z,79.40
2023-05-24T06:54:59.204Z,79.20
2023-05-24T06:57:27.046Z,78.40
2023-05-24T06:59:53.973Z,78.10
2023-05-24T07:02:26.642Z,77.90
2023-05-24T07:04:54.211Z,77.20
2023-05-24T07:07:21.445Z,76.90
2023-05-24T07:09:48.407Z,76.60
2023-05-24T07:12:15.506Z,76.30
2023-05-24T07:14:42.783Z,75.60
2023-05-24T07:17:09.830Z,75.20
2023-05-24T07:19:37.271Z,75.10
2023-05-24T07:22:04.174Z,75.30
2023-05-24T07:24:31.430Z,75.50
2023-05-24T07:26:58.431Z,74.70
2023-05-24T07:29:26.134Z,74.50
2023-05-24T07:31:55.902Z,73.30
2023-05-24T07:34:23.969Z,71.70
2023-05-24T07:36:50.922Z,71.80
2023-05-24T07:39:17.948Z,71.40
2023-05-24T07:41:45.478Z,72.10
2023-05-24T07:44:15.029Z,72.20
2023-05-24T07:46:42.058Z,71.40
2023-05-24T07:49:09.291Z,72.00
2023-05-24T07:51:36.845Z,71.10
2023-05-24T07:54:04.042Z,70.60
2023-05-24T07:56:32.184Z,70.50
2023-05-24T07:59:05.616Z,70.70
2023-05-24T08:01:34.540Z,70.20
2023-05-24T08:04:04.300Z,69.40
2023-05-24T08:06:32.935Z,69.30
2023-05-24T08:09:00.238Z,69.70
2023-05-24T08:11:27.512Z,70.40
2023-05-24T08:13:54.448Z,70.90
2023-05-24T08:16:21.519Z,71.20
2023-05-24T08:18:48.439Z,71.40
2023-05-24T08:21:15.730Z,71.30
2023-05-24T08:23:42.898Z,70.50
2023-05-24T08:26:09.996Z,70.20
2023-05-24T08:28:37.412Z,69.60
2023-05-24T08:31:04.535Z,69.80
2023-05-24T08:33:32.180Z,69.30
2023-05-24T08:35:59.278Z,68.90
2023-05-24T08:38:26.294Z,69.00
2023-05-24T08:40:53.447Z,69.30
2023-05-24T08:43:21.475Z,68.60
2023-05-24T08:45:49.764Z,68.70
2023-05-24T08:48:18.352Z,69.10
2023-05-24T08:50:46.674Z,69.50
2023-05-24T08:53:14.904Z,69.20
2023-05-24T08:55:44.135Z,68.60
2023-05-24T08:58:11.751Z,67.20
2023-05-24T09:00:38.739Z,67.50
2023-05-24T09:03:06.728Z,66.60
2023-05-24T09:05:34.572Z,67.90
2023-05-24T09:08:02.601Z,68.90
2023-05-24T09:10:45.027Z,68.00
2023-05-24T09:13:19.773Z,66.00
2023-05-24T09:15:46.974Z,66.70
2023-05-24T09:18:14.118Z,67.70
2023-05-24T09:20:41.482Z,68.10
2023-05-24T09:23:09.535Z,67.90
2023-05-24T09:25:36.619Z,66.60
2023-05-24T09:28:09.972Z,66.00
2023-05-24T09:30:37.311Z,65.20
2023-05-24T09:33:07.004Z,65.50
2023-05-24T09:35:34.459Z,66.40
2023-05-24T09:38:01.400Z,66.80
2023-05-24T09:40:29.822Z,66.60
2023-05-24T09:43:09.185Z,65.30
2023-05-24T09:45:49.218Z,65.40
2023-05-24T09:48:17.447Z,65.80
2023-05-24T09:50:47.828Z,64.70
2023-05-24T09:53:18.818Z,64.40
2023-05-24T09:55:46.385Z,63.10
2023-05-24T09:58:13.866Z,62.60
2023-05-24T10:00:42.183Z,63.80
2023-05-24T10:03:12.437Z,64.80
2023-05-24T10:05:45.519Z,62.70
2023-05-24T10:08:14.524Z,63.10
2023-05-24T10:10:43.003Z,63.60
2023-05-24T10:13:10.533Z,61.90
2023-05-24T10:15:38.159Z,63.40
2023-05-24T10:18:11.308Z,63.60
2023-05-24T10:20:41.876Z,65.10
2023-05-24T10:23:10.464Z,64.80
2023-05-24T10:25:42.058Z,63.60
2023-05-24T10:28:12.707Z,63.20
2023-05-24T10:30:48.996Z,63.00
2023-05-24T10:33:18.451Z,63.70
2023-05-24T10:35:46.224Z,61.80
2023-05-24T10:38:13.333Z,61.70
2023-05-24T10:40:43.868Z,61.80
2023-05-24T10:43:11.204Z,61.90
2023-05-24T10:45:40.098Z,61.30
2023-05-24T10:48:13.328Z,60.80
2023-05-24T10:50:42.039Z,61.00
2023-05-24T10:53:15.936Z,61.70
2023-05-24T10:56:00.077Z,61.50
2023-05-24T10:59:00.228Z,62.50
2023-05-24T11:01:32.412Z,63.80
2023-05-24T11:04:16.187Z,60.90
2023-05-24T11:06:58.266Z,60.60
2023-05-24T11:09:27.554Z,59.70
2023-05-24T11:12:09.876Z,59.50
2023-05-24T11:14:42.421Z,60.30
2023-05-24T11:17:09.618Z,58.30
2023-05-24T11:19:38.488Z,58.00
2023-05-24T11:22:08.797Z,57.50
2023-05-24T11:24:36.527Z,57.90
2023-05-24T11:27:03.852Z,57.50
2023-05-24T11:29:30.982Z,56.20
2023-05-24T11:32:05.044Z,55.50
2023-05-24T11:34:33.709Z,55.80
2023-05-24T11:37:02.112Z,56.80
2023-05-24T11:39:33.914Z,57.30
2023-05-24T11:42:02.453Z,56.80
2023-05-24T11:44:31.803Z,55.50
2023-05-24T11:47:03.216Z,55.70
2023-05-24T11:49:30.577Z,56.20
2023-05-24T11:51:58.885Z,56.20
2023-05-24T11:54:27.630Z,53.00
2023-05-24T11:56:55.433Z,54.60
2023-05-24T11:59:28.193Z,56.30
2023-05-24T12:02:00.723Z,56.30
2023-05-24T12:04:32.293Z,56.50
2023-05-24T12:07:00.374Z,55.30
2023-05-24T12:09:28.606Z,54.40
2023-05-24T12:11:56.038Z,54.30
2023-05-24T12:14:31.458Z,55.40
2023-05-24T12:16:59.154Z,55.90
2023-05-24T12:19:33.940Z,55.30
2023-05-24T12:22:08.106Z,55.20
2023-05-24T12:24:35.692Z,55.00
2023-05-24T12:27:07.792Z,55.10
2023-05-24T12:29:40.788Z,55.50
2023-05-24T12:32:15.196Z,55.20
2023-05-24T12:34:44.175Z,55.40
2023-05-24T12:37:12.697Z,56.80
2023-05-24T12:39:42.777Z,56.20
2023-05-24T12:42:12.532Z,56.60
2023-05-24T12:44:40.098Z,58.00
2023-05-24T12:47:08.464Z,56.90
2023-05-24T12:49:36.434Z,56.60
2023-05-24T12:52:03.729Z,56.00
2023-05-24T12:54:31.377Z,54.40
2023-05-24T12:57:03.063Z,55.10
2023-05-24T12:59:30.526Z,56.10
2023-05-24T13:01:58.148Z,55.70
2023-05-24T13:04:28.039Z,55.30
2023-05-24T13:06:55.531Z,54.10
2023-05-24T13:09:23.732Z,54.40
2023-05-24T13:11:52.194Z,54.80
2023-05-24T13:14:20.032Z,55.50
2023-05-24T13:16:47.656Z,54.70
2023-05-24T13:19:14.684Z,54.40
2023-05-24T13:21:41.753Z,55.10
2023-05-24T13:24:09.053Z,55.30
2023-05-24T13:26:37.591Z,54.50
2023-05-24T13:31:38.115Z,53.60
2023-05-24T13:34:05.842Z,54.30
2023-05-24T13:36:33.261Z,54.00
2023-05-24T13:41:30.937Z,54.20
2023-05-24T13:43:57.984Z,54.50
2023-05-24T13:46:25.149Z,54.90
2023-05-24T13:48:52.363Z,55.60
2023-05-24T13:51:20.015Z,56.00
2023-05-24T13:53:48.082Z,55.70
2023-05-24T13:56:16.108Z,55.60
2023-05-24T13:58:43.327Z,54.60
2023-05-24T14:01:11.002Z,53.70
2023-05-24T14:03:40.226Z,53.60
2023-05-24T14:06:10.396Z,55.10
2023-05-24T14:08:37.459Z,56.00
2023-05-24T14:11:04.484Z,56.20
2023-05-24T14:14:32.886Z,56.80
2023-05-24T14:16:19.479Z,58.00
2023-05-24T14:18:49.130Z,58.50
2023-05-24T14:21:17.922Z,59.30
2023-05-24T14:23:44.958Z,60.50
2023-05-24T14:26:12.008Z,61.50
2023-05-24T14:28:38.960Z,62.20
2023-05-24T14:31:05.998Z,63.10
2023-05-24T14:33:32.969Z,63.50
2023-05-24T14:35:59.953Z,64.20
2023-05-24T14:38:26.882Z,64.40
2023-05-24T14:40:54.679Z,64.80
2023-05-24T14:43:21.638Z,64.60
2023-05-24T14:45:48.850Z,65.50
2023-05-24T14:48:16.955Z,66.00
2023-05-24T14:50:44.086Z,66.50
2023-05-24T14:53:14.340Z,63.60
2023-05-24T14:55:43.206Z,60.80
2023-05-24T14:58:13.642Z,58.90
2023-05-24T15:00:42.619Z,58.20
2023-05-24T15:03:12.557Z,57.90
2023-05-24T15:05:41.639Z,58.50
2023-05-24T15:08:09.630Z,58.70
2023-05-24T15:10:39.049Z,59.40
2023-05-24T15:13:06.330Z,60.30
2023-05-24T15:15:33.366Z,59.70
2023-05-24T15:18:00.506Z,58.90
2023-05-24T15:20:27.505Z,59.20
2023-05-24T15:22:55.032Z,58.80
2023-05-24T15:25:22.465Z,59.00
2023-05-24T15:27:49.605Z,59.20
2023-05-24T15:30:19.198Z,59.10
2023-05-24T15:32:46.456Z,59.70
2023-05-24T15:35:13.974Z,61.10
2023-05-24T15:37:41.563Z,62.60
2023-05-24T15:40:10.299Z,62.80
2023-05-24T15:42:37.298Z,65.50
2023-05-24T15:45:04.671Z,67.00
2023-05-24T15:47:36.359Z,68.30
2023-05-24T15:50:04.319Z,70.50
2023-05-24T15:52:31.263Z,71.80
2023-05-24T15:54:58.298Z,72.40
2023-05-24T15:57:25.354Z,74.60
2023-05-24T15:59:53.324Z,76.90
2023-05-24T16:02:21.303Z,77.80
2023-05-24T16:16:16.403Z,77.60
2023-05-24T16:18:43.479Z,81.30
2023-05-24T16:21:10.623Z,82.80
2023-05-24T16:23:37.587Z,82.90
2023-05-24T16:26:04.549Z,83.50
2023-05-24T16:28:31.800Z,84.70
2023-05-24T16:31:00.260Z,85.20
2023-05-24T16:33:27.233Z,84.30
2023-05-24T16:35:57.441Z,85.10
2023-05-24T16:38:26.126Z,83.10
2023-05-24T16:40:53.831Z,82.70
2023-05-24T16:43:21.717Z,83.70
2023-05-24T16:45:48.752Z,84.80
2023-05-24T16:48:16.062Z,85.60
2023-05-24T16:50:43.387Z,86.00
2023-05-24T16:53:10.931Z,86.40
2023-05-24T16:55:37.824Z,86.60
2023-05-24T16:58:04.756Z,86.90
2023-05-24T17:00:31.827Z,87.30
2023-05-24T17:03:00.293Z,87.50
2023-05-24T17:05:27.791Z,87.60
2023-05-24T17:07:55.289Z,87.90
2023-05-24T17:10:22.201Z,88.40
2023-05-24T17:12:49.361Z,88.80
2023-05-24T17:15:16.495Z,88.90
2023-05-24T17:17:43.632Z,89.10
2023-05-24T17:20:11.019Z,89.80
2023-05-24T17:22:38.134Z,90.00
2023-05-24T17:25:05.494Z,90.30
2023-05-24T17:27:32.498Z,90.60
2023-05-24T17:30:00.570Z,90.80
2023-05-24T17:32:27.607Z,90.80
2023-05-24T17:34:54.525Z,90.90
2023-05-24T17:37:21.786Z,91.10
2023-05-24T17:39:52.235Z,91.30
2023-05-24T17:42:19.603Z,91.40
2023-05-24T17:44:46.577Z,91.60
2023-05-24T17:47:13.574Z,91.70
2023-05-24T17:49:40.491Z,91.90
2023-05-24T17:52:07.518Z,92.10
2023-05-24T17:54:34.517Z,92.20
2023-05-24T17:57:03.031Z,92.40
2023-05-24T17:59:30.039Z,92.50
2023-05-24T18:01:57.150Z,92.40
2023-05-24T18:04:24.041Z,92.40
2023-05-24T18:06:51.132Z,92.60
2023-05-24T18:09:18.108Z,92.70
2023-05-24T18:11:45.137Z,92.60
2023-05-24T18:14:12.086Z,92.50
2023-05-24T18:16:39.139Z,92.50
2023-05-24T18:19:06.141Z,92.30
2023-05-24T18:21:33.273Z,92.00
2023-05-24T18:24:00.167Z,91.90
2023-05-24T18:26:27.262Z,91.80
2023-05-24T18:28:54.677Z,91.80
2023-05-24T18:31:21.980Z,91.80
2023-05-24T18:33:49.107Z,92.00
2023-05-24T18:36:16.583Z,92.20
2023-05-24T18:38:47.169Z,92.30
2023-05-24T18:41:15.025Z,92.30
2023-05-24T18:43:43.124Z,92.40
2023-05-24T18:46:14.811Z,92.40
2023-05-24T18:48:42.365Z,92.50
2023-05-24T18:51:09.406Z,92.50
2023-05-24T18:53:36.553Z,92.60
2023-05-24T18:56:03.639Z,92.70
2023-05-24T18:58:31.018Z,92.90
2023-05-24T19:00:58.060Z,93.10
2023-05-24T19:03:25.713Z,93.20
2023-05-24T19:05:52.640Z,93.30
2023-05-24T19:08:19.840Z,93.50
2023-05-24T19:10:46.932Z,93.60
2023-05-24T19:13:14.499Z,93.60
2023-05-24T19:15:41.794Z,93.70
2023-05-24T19:18:08.892Z,93.90
2023-05-24T19:20:36.072Z,93.90
2023-05-24T19:23:03.211Z,93.90
2023-05-24T19:25:31.302Z,93.80
2023-05-24T19:28:00.533Z,93.60
2023-05-24T19:30:27.893Z,93.60
2023-05-24T19:32:54.955Z,93.60
2023-05-24T19:35:22.083Z,93.50
2023-05-24T19:37:49.167Z,93.40
2023-05-24T19:40:16.228Z,93.40
2023-05-24T19:42:43.348Z,93.40
2023-05-24T19:45:12.061Z,93.50
2023-05-24T19:47:39.801Z,93.60
2023-05-24T19:50:07.653Z,93.60
2023-05-24T19:52:34.618Z,93.70
2023-05-24T19:55:01.508Z,93.70
2023-05-24T19:57:28.495Z,93.80
2023-05-24T19:59:55.542Z,93.90
2023-05-24T20:02:22.671Z,93.90
2023-05-24T20:04:49.739Z,94.00
2023-05-24T20:07:16.699Z,94.00
2023-05-24T20:09:43.884Z,94.10
2023-05-24T20:12:11.410Z,94.10
2023-05-24T20:14:38.373Z,94.10
2023-05-24T20:17:05.479Z,94.30
2023-05-24T20:19:32.651Z,94.40
2023-05-24T20:21:59.644Z,94.60
2023-05-24T20:24:26.533Z,94.80
2023-05-24T20:26:53.540Z,94.80
2023-05-24T20:29:20.400Z,94.90
2023-05-24T20:31:47.385Z,95.00
2023-05-24T20:34:14.442Z,95.10
2023-05-24T20:36:43.570Z,95.10
2023-05-24T20:39:10.890Z,95.20
2023-05-24T20:41:38.185Z,94.80
2023-05-24T20:44:05.096Z,94.80
2023-05-24T20:46:32.190Z,94.90
2023-05-24T20:48:59.405Z,95.00
2023-05-24T20:51:26.322Z,95.10
2023-05-24T20:53:53.395Z,95.20
2023-05-24T20:56:23.076Z,95.40
2023-05-24T20:58:52.979Z,95.40
2023-05-24T21:01:21.104Z,95.40
2023-05-24T21:03:48.295Z,95.50
2023-05-24T21:06:15.546Z,95.40
2023-05-24T21:08:43.342Z,95.40
2023-05-24T21:11:10.845Z,95.30
2023-05-24T21:13:37.802Z,95.30
2023-05-24T21:16:05.025Z,95.40
2023-05-24T21:18:33.470Z,95.40
2023-05-24T21:21:00.724Z,95.40
2023-05-24T21:23:27.720Z,95.30
2023-05-24T21:25:54.692Z,95.40
2023-05-24T21:28:21.653Z,95.50
2023-05-24T21:30:48.659Z,95.50
2023-05-24T21:33:16.622Z,95.50
2023-05-24T21:35:43.847Z,95.40
2023-05-24T21:38:10.960Z,95.40
2023-05-24T21:40:38.143Z,95.30
2023-05-24T21:43:05.329Z,95.20
2023-05-24T21:45:32.344Z,95.20
2023-05-24T21:47:59.409Z,95.20
2023-05-24T21:50:26.487Z,95.30
2023-05-24T21:52:53.363Z,95.40
2023-05-24T21:55:20.884Z,95.40
2023-05-24T21:57:47.863Z,95.40
2023-05-24T22:00:15.282Z,95.30
2023-05-24T22:02:42.484Z,95.20
2023-05-24T22:05:09.671Z,95.20
2023-05-24T22:07:37.624Z,95.20
2023-05-24T22:10:06.414Z,95.30
2023-05-24T22:12:34.225Z,95.40
2023-05-24T22:15:01.752Z,95.50
2023-05-24T22:17:33.085Z,95.50
2023-05-24T22:20:01.400Z,95.60
2023-05-24T22:22:28.585Z,95.60
2023-05-24T22:24:56.497Z,95.60
2023-05-24T22:27:23.520Z,95.60
2023-05-24T22:29:50.536Z,95.50
2023-05-24T22:32:17.682Z,95.60
2023-05-24T22:34:44.876Z,95.60
2023-05-24T22:37:11.898Z,95.60
2023-05-24T22:39:39.421Z,95.60
2023-05-24T22:42:06.312Z,95.50
2023-05-24T22:44:33.357Z,95.50
2023-05-24T22:47:02.020Z,95.50
2023-05-24T22:49:34.139Z,95.50
2023-05-24T22:52:01.857Z,95.80
2023-05-24T22:54:28.763Z,95.40
2023-05-24T22:56:56.738Z,95.30
2023-05-24T22:59:23.742Z,95.30
2023-05-24T23:01:51.125Z,95.40
2023-05-24T23:04:21.300Z,95.50
2023-05-24T23:06:52.554Z,95.50
2023-05-24T23:09:29.099Z,95.60
2023-05-24T23:11:58.483Z,95.50
2023-05-24T23:14:25.845Z,95.60
2023-05-24T23:16:52.911Z,95.60
2023-05-24T23:19:19.899Z,95.60
2023-05-24T23:21:46.876Z,95.70
2023-05-24T23:24:15.940Z,95.70
2023-05-24T23:26:43.466Z,95.70
2023-05-24T23:29:10.673Z,95.80
2023-05-24T23:31:38.020Z,95.70
2023-05-24T23:34:05.569Z,95.70
2023-05-24T23:36:32.782Z,95.70
2023-05-24T23:38:59.750Z,95.70
2023-05-24T23:41:27.340Z,95.70
2023-05-24T23:43:54.306Z,95.70
2023-05-24T23:46:21.410Z,95.70
2023-05-24T23:48:48.393Z,95.80
2023-05-24T23:51:15.407Z,95.90
2023-05-24T23:53:42.302Z,95.90
2023-05-24T23:56:09.418Z,96.00
2023-05-24T23:58:37.575Z,95.90
